Conakry, Guinea
Current Conditions -  °F | °C
As of 1:00 AM on Friday 28 Nov 2014 (Local Time) from GUCY Reporting Station
Scattered Clouds Scattered Clouds  
Wind Chill: 25°   Ceiling: Unl
Heat Index: 26°   Visibility: 6mi
Dew Point: 24°   Wind: 2mph
Humidity: 94%   Direction: NA
Pressure: 29.85"   Gusts: NA
Location:  9.55°N, 13.67°W
Report Text: GUCY 280100Z VRB02KT 9999 FEW015 SCT110 25/24 Q1011 NOSIG
Loading
Personal Weather Stations






























Interactive Weather Map New forecast layout! Learn more

10-Day Weather Forecast

Advertisements
Track Severe Weather on mobile